Time;durP1;ratioP1;P1;durP2;ratioP2;P2;SDS_P1;SDS_P2;PMS_P1;PMS_P2;Temp;Humidity;BMP_temperature;BMP_pressure;BME280_temperature;BME280_humidity;BME280_pressure;Samples;Min_cycle;Max_cycle;Signal;HPM_P1;HPM_P2
2021/08/22 00:01:06;;;;;;;9.20;7.10;;;;;;;11.60;82.53;100871.70;92762;1209;82296;-64
2021/08/22 00:03:14;;;;;;;13.40;7.90;;;;;;;11.55;82.47;100870.11;92771;1209;99692;-64
2021/08/22 00:05:22;;;;;;;13.90;9.40;;;;;;;11.53;82.64;100870.39;92758;1209;87424;-64
2021/08/22 00:07:30;;;;;;;12.20;8.50;;;;;;;11.52;82.55;100870.74;92740;1209;92436;-64
2021/08/22 00:09:37;;;;;;;13.20;6.90;;;;;;;11.51;82.57;100867.23;92783;1209;81157;-61
2021/08/22 00:11:45;;;;;;;8.20;6.90;;;;;;;11.48;82.67;100863.44;92789;1209;82304;-61
2021/08/22 00:13:55;;;;;;;8.70;7.30;;;;;;;11.46;82.68;100863.56;92785;1209;99211;-61
2021/08/22 00:16:04;;;;;;;9.40;7.40;;;;;;;11.42;82.65;100864.83;92771;1209;87941;-61
2021/08/22 00:18:12;;;;;;;9.20;7.20;;;;;;;11.39;82.70;100863.42;92765;1209;93801;-64
2021/08/22 00:20:23;;;;;;;10.50;6.50;;;;;;;11.37;82.74;100861.88;92741;1209;81226;-64
2021/08/22 00:22:31;;;;;;;7.20;6.40;;;;;;;11.36;82.78;100864.23;92778;1209;80496;-65
2021/08/22 00:24:38;;;;;;;10.60;7.50;;;;;;;11.35;82.85;100867.20;92742;1209;97893;-61
2021/08/22 00:26:46;;;;;;;7.80;6.90;;;;;;;11.36;82.89;100866.02;92761;1209;87762;-61
2021/08/22 00:28:53;;;;;;;10.70;7.00;;;;;;;11.34;82.91;100858.09;92772;1209;94030;-64
2021/08/22 00:31:01;;;;;;;10.00;6.50;;;;;;;11.32;82.93;100857.51;92754;1209;80713;-65
2021/08/22 00:33:08;;;;;;;8.70;5.80;;;;;;;11.29;82.88;100859.09;92756;1209;81330;-62
2021/08/22 00:35:16;;;;;;;7.40;6.00;;;;;;;11.27;82.90;100861.48;92788;1209;97817;-61
2021/08/22 00:37:26;;;;;;;6.60;5.80;;;;;;;11.24;82.89;100861.02;92758;1209;87388;-59
2021/08/22 00:39:34;;;;;;;7.10;5.50;;;;;;;11.23;82.86;100856.54;92786;1209;95023;-60
2021/08/22 00:41:43;;;;;;;6.30;5.70;;;;;;;11.21;82.96;100853.67;92727;1209;78720;-61
2021/08/22 00:43:51;;;;;;;6.40;5.40;;;;;;;11.20;83.11;100853.41;92789;1202;80381;-63
2021/08/22 00:46:01;;;;;;;6.10;5.00;;;;;;;11.22;83.09;100852.82;92747;1209;98703;-64
2021/08/22 00:48:12;;;;;;;6.70;4.80;;;;;;;11.21;83.09;100852.77;92787;1209;87715;-61
2021/08/22 00:50:20;;;;;;;8.40;5.80;;;;;;;11.19;83.05;100859.48;92765;1209;92643;-60
2021/08/22 00:52:32;;;;;;;8.30;5.60;;;;;;;11.19;83.17;100860.22;92811;1209;79159;-61
2021/08/22 00:54:45;;;;;;;7.20;6.40;;;;;;;11.17;83.24;100860.12;92779;1202;80387;-64
2021/08/22 00:56:55;;;;;;;6.90;6.00;;;;;;;11.13;83.35;100857.20;92749;1209;99785;-65
2021/08/22 00:59:07;;;;;;;7.10;5.80;;;;;;;11.11;83.19;100852.23;92791;1209;86899;-61
2021/08/22 01:01:21;;;;;;;7.90;5.90;;;;;;;11.09;83.25;100852.92;92780;1209;94162;-61
2021/08/22 01:03:42;;;;;;;8.00;6.30;;;;;;;11.09;83.27;100850.84;92778;1209;80504;-61
2021/08/22 01:06:04;;;;;;;7.80;6.10;;;;;;;11.09;83.34;100850.80;92788;1209;82738;-61
2021/08/22 01:08:24;;;;;;;10.70;7.20;;;;;;;11.07;83.31;100849.36;92756;1209;100001;-64
2021/08/22 01:10:37;;;;;;;12.50;6.40;;;;;;;11.05;83.24;100849.24;92781;1209;88305;-65
2021/08/22 01:12:55;;;;;;;8.90;5.60;;;;;;;11.07;83.27;100853.18;92771;1209;94263;-65
2021/08/22 01:15:07;;;;;;;7.90;6.60;;;;;;;11.06;83.37;100850.13;92754;1209;77821;-61
2021/08/22 01:17:15;;;;;;;8.50;6.20;;;;;;;11.04;83.42;100849.08;92774;1209;81335;-62
2021/08/22 01:19:41;;;;;;;7.60;6.00;;;;;;;11.02;83.37;100847.85;92729;1209;99706;-65
2021/08/22 01:21:49;;;;;;;6.20;5.40;;;;;;;11.00;83.24;100845.17;92778;1209;85914;-65
2021/08/22 01:24:02;;;;;;;6.60;5.50;;;;;;;10.98;83.29;100842.63;92746;1209;94442;-62
2021/08/22 01:26:12;;;;;;;10.50;6.10;;;;;;;10.96;83.29;100846.41;92782;1209;78505;-61
2021/08/22 01:28:25;;;;;;;7.20;5.70;;;;;;;10.95;83.27;100845.48;92753;1209;82055;-64
2021/08/22 01:30:39;;;;;;;10.50;6.10;;;;;;;10.94;83.38;100844.71;92772;1209;99991;-65
2021/08/22 01:32:49;;;;;;;9.10;5.80;;;;;;;10.91;83.33;100841.41;92799;1209;87022;-65
2021/08/22 01:34:57;;;;;;;9.50;6.10;;;;;;;10.88;83.27;100842.39;92757;1209;94178;-62
2021/08/22 01:37:05;;;;;;;7.00;5.80;;;;;;;10.86;83.28;100842.44;92741;1209;80941;-62
2021/08/22 01:39:14;;;;;;;7.90;6.10;;;;;;;10.86;83.37;100844.94;92819;1209;82207;-65
2021/08/22 01:41:24;;;;;;;8.80;6.30;;;;;;;10.86;83.45;100843.98;92763;1209;99614;-64
2021/08/22 01:43:33;;;;;;;9.70;7.00;;;;;;;10.88;83.48;100843.94;92785;1209;87838;-61
2021/08/22 01:45:42;;;;;;;10.00;7.00;;;;;;;10.87;83.48;100843.05;92779;1209;93812;-61
2021/08/22 01:47:52;;;;;;;11.30;7.70;;;;;;;10.86;83.64;100842.16;92777;1209;80864;-61
2021/08/22 01:50:00;;;;;;;12.00;7.50;;;;;;;10.87;83.56;100843.34;92791;1209;82558;-64
2021/08/22 01:52:09;;;;;;;9.50;7.50;;;;;;;10.87;83.68;100845.38;92790;1209;99223;-65
2021/08/22 01:54:17;;;;;;;9.50;7.30;;;;;;;10.87;83.68;100845.75;92784;1209;86690;-62
2021/08/22 01:56:24;;;;;;;9.70;7.50;;;;;;;10.85;83.69;100847.00;92762;1209;94589;-61
2021/08/22 01:58:35;;;;;;;9.30;7.90;;;;;;;10.85;83.74;100847.24;92738;1209;79132;-61
2021/08/22 02:00:43;;;;;;;10.50;8.10;;;;;;;10.84;83.66;100845.70;92773;1209;81108;-61
2021/08/22 02:03:05;;;;;;;9.80;7.60;;;;;;;10.85;83.71;100848.78;92771;1209;99846;-61
2021/08/22 02:05:17;;;;;;;10.30;8.70;;;;;;;10.87;83.79;100846.83;92774;1209;86986;-64
2021/08/22 02:07:29;;;;;;;9.60;8.30;;;;;;;10.89;83.93;100840.41;92778;1209;94156;-64
2021/08/22 02:09:41;;;;;;;9.30;7.30;;;;;;;10.94;83.99;100847.04;92791;1209;81219;-64
2021/08/22 02:11:55;;;;;;;10.00;8.10;;;;;;;10.96;84.12;100846.66;92743;1209;81878;-63
2021/08/22 02:14:03;;;;;;;9.50;7.90;;;;;;;10.99;84.10;100850.25;92767;1209;100122;-65
2021/08/22 02:16:16;;;;;;;10.50;8.30;;;;;;;11.02;84.06;100853.59;92740;1209;87073;-64
2021/08/22 02:18:25;;;;;;;11.00;8.20;;;;;;;11.06;84.14;100855.49;92765;1209;92787;-64
2021/08/22 02:20:34;;;;;;;9.50;7.80;;;;;;;11.09;84.16;100854.22;92724;1209;78477;-64
2021/08/22 02:22:45;;;;;;;9.40;7.30;;;;;;;11.12;84.33;100857.67;92751;1209;81841;-64
2021/08/22 02:24:53;;;;;;;10.00;8.10;;;;;;;11.17;84.25;100860.46;92797;1209;100132;-64
2021/08/22 02:27:01;;;;;;;10.70;8.30;;;;;;;11.17;84.36;100857.80;92810;1209;86668;-64
2021/08/22 02:29:09;;;;;;;11.30;7.90;;;;;;;11.20;84.52;100858.90;92754;1209;92872;-64
2021/08/22 02:31:16;;;;;;;12.30;8.70;;;;;;;11.26;84.59;100856.00;92746;1209;80820;-64
2021/08/22 02:33:24;;;;;;;9.80;8.20;;;;;;;11.34;84.63;100852.48;92733;1209;80413;-62
2021/08/22 02:35:32;;;;;;;9.10;7.80;;;;;;;11.44;84.58;100848.09;92766;1209;99444;-63
2021/08/22 02:37:43;;;;;;;11.90;8.10;;;;;;;11.51;84.54;100845.79;92760;1209;88625;-62
2021/08/22 02:39:51;;;;;;;10.20;8.80;;;;;;;11.56;84.57;100844.21;92750;1209;94325;-66
2021/08/22 02:41:59;;;;;;;9.60;8.50;;;;;;;11.63;84.66;100842.61;92753;1208;79319;-66
2021/08/22 02:44:07;;;;;;;9.40;8.40;;;;;;;11.71;84.72;100839.41;92770;1209;81291;-66
2021/08/22 02:46:18;;;;;;;10.40;8.70;;;;;;;11.81;84.87;100840.63;92787;1209;99631;-66
2021/08/22 02:48:28;;;;;;;13.10;8.70;;;;;;;11.92;84.69;100833.88;92751;1209;87023;-65
2021/08/22 02:50:36;;;;;;;11.60;8.50;;;;;;;12.00;84.69;100829.40;92769;1209;93796;-66
2021/08/22 02:52:46;;;;;;;13.40;8.10;;;;;;;12.01;84.66;100820.66;92755;1209;79459;-66
2021/08/22 02:54:54;;;;;;;10.10;8.00;;;;;;;11.98;84.59;100823.75;92764;1209;82967;-66
2021/08/22 02:57:01;;;;;;;13.10;7.90;;;;;;;11.95;84.35;100824.17;92739;1209;100000;-66
2021/08/22 02:59:09;;;;;;;11.10;8.50;;;;;;;11.91;84.26;100830.89;92726;1209;87863;-66
2021/08/22 03:01:17;;;;;;;11.50;8.40;;;;;;;11.84;84.19;100833.18;92761;1209;93871;-66
2021/08/22 03:03:24;;;;;;;12.00;8.30;;;;;;;11.81;84.12;100835.42;92781;1209;78421;-65
2021/08/22 03:05:32;;;;;;;10.80;7.80;;;;;;;11.78;84.14;100832.91;92766;1209;81690;-66
2021/08/22 03:07:39;;;;;;;11.00;7.70;;;;;;;11.74;84.13;100831.43;92749;1209;99275;-66
2021/08/22 03:09:47;;;;;;;10.90;8.00;;;;;;;11.68;84.22;100829.46;92773;1209;88063;-66
2021/08/22 03:11:55;;;;;;;9.70;8.10;;;;;;;11.66;84.41;100822.08;92734;1209;94421;-66
2021/08/22 03:14:02;;;;;;;10.90;7.70;;;;;;;11.69;84.42;100817.21;92802;1209;79423;-62
2021/08/22 03:16:13;;;;;;;11.80;9.00;;;;;;;11.71;84.54;100815.16;92753;1209;82032;-62
2021/08/22 03:18:20;;;;;;;10.40;8.10;;;;;;;11.78;84.64;100811.19;92748;1209;99196;-64
2021/08/22 03:20:29;;;;;;;10.40;8.50;;;;;;;11.81;84.73;100818.39;92763;1209;87863;-65
2021/08/22 03:22:37;;;;;;;9.60;8.60;;;;;;;11.87;84.66;100818.60;92783;1209;92897;-65
2021/08/22 03:24:44;;;;;;;10.70;8.00;;;;;;;11.92;84.55;100823.91;92777;1209;77826;-65
2021/08/22 03:26:52;;;;;;;9.80;8.20;;;;;;;11.96;84.54;100827.45;92741;1209;79976;-66
2021/08/22 03:28:59;;;;;;;10.50;9.00;;;;;;;11.97;84.63;100826.27;92732;1210;99862;-66
2021/08/22 03:31:07;;;;;;;10.40;8.40;;;;;;;11.98;84.58;100827.90;92746;1209;86452;-66
2021/08/22 03:33:15;;;;;;;11.50;9.00;;;;;;;11.99;84.53;100825.11;92753;1209;91768;-63
2021/08/22 03:35:26;;;;;;;11.00;8.30;;;;;;;12.02;84.59;100827.41;92732;1209;81186;-62
2021/08/22 03:37:37;;;;;;;9.70;8.50;;;;;;;12.07;84.65;100828.05;92780;1209;81839;-62
2021/08/22 03:39:44;;;;;;;10.30;8.30;;;;;;;12.13;84.74;100826.86;92759;1209;99803;-62
2021/08/22 03:41:52;;;;;;;11.50;8.40;;;;;;;12.16;84.87;100819.51;92755;1209;86478;-63
2021/08/22 03:44:03;;;;;;;9.80;8.30;;;;;;;12.21;84.78;100818.70;92779;1209;93159;-63
2021/08/22 03:46:11;;;;;;;10.90;8.20;;;;;;;12.23;84.75;100816.84;92760;1209;81068;-62
2021/08/22 03:48:18;;;;;;;9.70;8.10;;;;;;;12.28;84.73;100816.38;92839;1209;82263;-62
2021/08/22 03:50:26;;;;;;;9.60;8.20;;;;;;;12.29;84.71;100816.27;92773;1209;99237;-62
2021/08/22 03:52:34;;;;;;;8.70;7.80;;;;;;;12.30;84.69;100815.95;92773;1209;88852;-62
2021/08/22 03:54:41;;;;;;;12.20;8.60;;;;;;;12.31;84.59;100815.58;92711;1209;93858;-67
2021/08/22 03:56:52;;;;;;;10.40;8.50;;;;;;;12.34;84.51;100815.57;92741;1209;79790;-64
2021/08/22 03:59:01;;;;;;;9.60;8.30;;;;;;;12.37;84.60;100819.23;92719;1211;82067;-62
2021/08/22 04:01:09;;;;;;;9.60;8.50;;;;;;;12.37;84.41;100818.65;92771;1209;99148;-62
2021/08/22 04:03:17;;;;;;;10.50;9.20;;;;;;;12.41;84.48;100818.20;92804;1209;89646;-63
2021/08/22 04:05:25;;;;;;;9.30;8.20;;;;;;;12.46;84.46;100818.30;92789;1209;94069;-62
2021/08/22 04:07:33;;;;;;;9.70;8.40;;;;;;;12.48;84.40;100822.60;92728;1210;79797;-63
2021/08/22 04:09:41;;;;;;;10.90;8.70;;;;;;;12.50;84.35;100824.55;92760;1209;80836;-66
2021/08/22 04:11:55;;;;;;;12.40;8.50;;;;;;;12.53;84.39;100826.45;92726;1209;97806;-65
2021/08/22 04:14:03;;;;;;;11.50;8.60;;;;;;;12.61;84.37;100827.45;92784;1209;88365;-66
2021/08/22 04:16:11;;;;;;;13.10;8.60;;;;;;;12.66;84.42;100824.05;92758;1209;93932;-65
2021/08/22 04:18:18;;;;;;;12.40;8.70;;;;;;;12.70;84.38;100827.23;92798;1209;77815;-63
2021/08/22 04:20:26;;;;;;;11.40;8.70;;;;;;;12.73;84.29;100827.69;92774;1202;80416;-63
2021/08/22 04:22:36;;;;;;;10.90;8.40;;;;;;;12.76;84.28;100831.13;92746;1209;99292;-63
2021/08/22 04:24:44;;;;;;;10.20;8.50;;;;;;;12.81;84.35;100835.76;92762;1209;87489;-63
2021/08/22 04:26:54;;;;;;;9.70;7.30;;;;;;;12.86;84.41;100835.54;92696;1209;94202;-63
2021/08/22 04:29:02;;;;;;;12.70;8.00;;;;;;;12.95;84.42;100840.05;92721;1209;79417;-59
2021/08/22 04:31:09;;;;;;;10.80;8.70;;;;;;;13.05;84.42;100834.77;92771;1202;81922;-61
2021/08/22 04:33:17;;;;;;;11.00;8.20;;;;;;;13.12;84.44;100828.98;92792;1209;100080;-60
2021/08/22 04:35:24;;;;;;;12.10;8.10;;;;;;;13.19;84.41;100826.52;92765;1209;86046;-62
2021/08/22 04:37:35;;;;;;;10.40;7.90;;;;;;;13.25;84.41;100828.58;92770;1209;92101;-62
2021/08/22 04:39:43;;;;;;;9.10;8.00;;;;;;;13.35;84.49;100823.73;92763;1209;78627;-65
2021/08/22 04:41:51;;;;;;;8.90;7.70;;;;;;;13.41;84.60;100822.73;92744;1209;80914;-65
2021/08/22 04:44:01;;;;;;;10.10;7.70;;;;;;;13.51;84.53;100821.05;92734;1210;98131;-66
2021/08/22 04:46:11;;;;;;;9.00;7.90;;;;;;;13.62;84.45;100817.84;92767;1209;88066;-65
2021/08/22 04:48:18;;;;;;;9.60;7.60;;;;;;;13.72;84.33;100814.25;92747;1209;93348;-61
2021/08/22 04:50:26;;;;;;;7.80;6.70;;;;;;;13.81;84.45;100820.20;92708;1210;80659;-62
2021/08/22 04:52:37;;;;;;;8.10;7.30;;;;;;;13.92;84.52;100819.67;92715;1202;80302;-63
2021/08/22 04:54:45;;;;;;;8.50;7.60;;;;;;;14.03;84.43;100820.19;92778;1209;98623;-63
2021/08/22 04:56:53;;;;;;;9.60;7.80;;;;;;;14.15;84.29;100819.96;92736;1209;87718;-63
2021/08/22 04:59:03;;;;;;;11.90;8.40;;;;;;;14.36;84.44;100829.90;92761;1209;93804;-65
2021/08/22 05:01:14;;;;;;;9.50;8.50;;;;;;;14.51;84.32;100827.03;92760;1209;81449;-66
2021/08/22 05:03:21;;;;;;;10.70;7.90;;;;;;;14.60;84.03;100831.20;92796;1209;81425;-66
2021/08/22 05:05:29;;;;;;;10.30;8.10;;;;;;;14.68;84.05;100831.68;92774;1209;100536;-66
2021/08/22 05:07:40;;;;;;;10.40;8.80;;;;;;;14.78;83.92;100831.50;92756;1210;87442;-65
2021/08/22 05:09:47;;;;;;;10.00;8.80;;;;;;;14.88;83.81;100831.81;92723;1209;92628;-62
2021/08/22 05:11:59;;;;;;;9.50;8.40;;;;;;;14.97;83.70;100831.27;92752;1209;78634;-63
2021/08/22 05:14:07;;;;;;;9.00;8.10;;;;;;;15.04;83.55;100831.63;92737;1209;82604;-65
2021/08/22 05:16:14;;;;;;;8.60;7.40;;;;;;;15.08;83.52;100834.64;92706;1210;98818;-66
2021/08/22 05:18:26;;;;;;;10.50;8.20;;;;;;;15.18;83.46;100831.67;92737;1209;87062;-66
2021/08/22 05:20:34;;;;;;;9.20;7.30;;;;;;;15.25;83.28;100833.52;92756;1209;93928;-66
2021/08/22 05:22:41;;;;;;;9.40;8.00;;;;;;;15.31;83.23;100834.98;92762;1210;78039;-65
2021/08/22 05:24:52;;;;;;;9.30;7.70;;;;;;;15.34;83.17;100833.22;92702;1209;81804;-65
2021/08/22 05:26:59;;;;;;;9.10;7.60;;;;;;;15.38;82.98;100838.67;92705;1209;98205;-66
2021/08/22 05:29:07;;;;;;;8.30;7.50;;;;;;;15.44;82.91;100833.36;92727;1211;86368;-63
2021/08/22 05:31:14;;;;;;;8.60;7.70;;;;;;;15.50;82.82;100829.33;92721;1209;93098;-63
2021/08/22 05:33:22;;;;;;;12.10;7.70;;;;;;;15.56;82.77;100823.23;92695;1209;79370;-63
2021/08/22 05:35:29;;;;;;;10.30;7.70;;;;;;;15.64;82.65;100825.36;92702;1211;82411;-63
2021/08/22 05:37:40;;;;;;;8.60;7.60;;;;;;;15.73;82.53;100825.77;92718;1209;98285;-63
2021/08/22 05:39:48;;;;;;;10.20;7.90;;;;;;;15.86;82.44;100828.04;92767;1209;88993;-62
2021/08/22 05:41:56;;;;;;;8.70;7.80;;;;;;;16.02;82.43;100820.79;92728;1210;94901;-62
2021/08/22 05:44:03;;;;;;;8.60;7.60;;;;;;;16.28;82.50;100820.23;92746;1209;79449;-66
2021/08/22 05:46:11;;;;;;;8.10;6.80;;;;;;;16.44;82.08;100815.49;92695;1210;81594;-65
2021/08/22 05:48:18;;;;;;;8.20;7.00;;;;;;;16.61;81.92;100809.70;92768;1209;100686;-65
2021/08/22 05:50:26;;;;;;;9.40;6.90;;;;;;;16.80;81.65;100817.81;92758;1209;86918;-65
2021/08/22 05:52:36;;;;;;;8.80;7.90;;;;;;;16.92;81.30;100823.23;92780;1210;93326;-66
2021/08/22 05:54:44;;;;;;;7.80;7.00;;;;;;;17.05;81.07;100825.16;92765;1210;79675;-66
2021/08/22 05:56:51;;;;;;;7.60;6.90;;;;;;;17.24;80.78;100824.59;92790;1209;81739;-65
2021/08/22 05:58:59;;;;;;;8.90;7.30;;;;;;;17.43;80.57;100826.98;92767;1209;98096;-65
2021/08/22 06:01:09;;;;;;;8.70;7.00;;;;;;;17.80;80.78;100827.38;92782;1210;86581;-67
2021/08/22 06:03:16;;;;;;;8.50;6.40;;;;;;;18.37;80.53;100825.55;92745;1210;94133;-63
2021/08/22 06:05:24;;;;;;;7.40;6.50;;;;;;;18.82;79.95;100823.70;92766;1209;80996;-63
2021/08/22 06:07:31;;;;;;;7.10;6.30;;;;;;;19.08;79.31;100821.71;92728;1209;81482;-63
2021/08/22 06:09:39;;;;;;;7.40;6.20;;;;;;;19.23;78.63;100821.71;92745;1209;99685;-67
2021/08/22 06:11:46;;;;;;;8.20;5.50;;;;;;;19.33;77.84;100823.86;92730;1210;86762;-67
2021/08/22 06:13:57;;;;;;;10.30;6.70;;;;;;;19.41;77.46;100830.70;92729;1209;93707;-64
2021/08/22 06:16:05;;;;;;;7.30;6.40;;;;;;;19.36;76.95;100829.66;92787;1209;80035;-63
2021/08/22 06:18:17;;;;;;;7.90;6.10;;;;;;;19.36;76.55;100828.91;92762;1210;80667;-64
2021/08/22 06:20:25;;;;;;;7.00;5.90;;;;;;;19.44;76.09;100832.08;92724;1211;100256;-64
2021/08/22 06:22:35;;;;;;;6.90;5.60;;;;;;;19.50;75.89;100833.98;92737;1209;88100;-63
2021/08/22 06:24:43;;;;;;;6.60;5.70;;;;;;;19.65;75.42;100831.77;92760;1209;92976;-64
2021/08/22 06:26:50;;;;;;;7.30;5.40;;;;;;;19.74;74.62;100830.68;92756;1209;78115;-64
2021/08/22 06:28:58;;;;;;;7.70;5.50;;;;;;;19.74;74.53;100827.48;92731;1204;81035;-66
2021/08/22 06:31:06;;;;;;;5.70;5.10;;;;;;;19.85;74.38;100827.20;92772;1209;97585;-66
2021/08/22 06:33:13;;;;;;;6.50;5.40;;;;;;;20.01;73.97;100824.05;92779;1209;88329;-64
2021/08/22 06:35:21;;;;;;;5.30;4.80;;;;;;;20.05;73.35;100821.77;92761;1209;93216;-64
2021/08/22 06:37:29;;;;;;;7.90;5.00;;;;;;;20.20;73.13;100817.23;92767;1211;78294;-63
2021/08/22 06:39:41;;;;;;;6.60;4.60;;;;;;;20.53;72.74;100812.56;92764;1209;81421;-63
2021/08/22 06:41:48;;;;;;;7.00;4.80;;;;;;;20.94;71.90;100809.88;92770;1209;99704;-64
2021/08/22 06:43:56;;;;;;;5.10;4.50;;;;;;;21.80;71.29;100805.81;92773;1209;86198;-64
2021/08/22 06:46:03;;;;;;;5.20;4.00;;;;;;;22.28;70.09;100808.64;92734;1209;94536;-64
2021/08/22 06:48:13;;;;;;;5.10;4.50;;;;;;;22.26;69.36;100810.92;92707;1209;79595;-67
2021/08/22 06:50:25;;;;;;;5.60;3.80;;;;;;;22.24;68.78;100817.46;92780;1209;82050;-66
2021/08/22 06:52:32;;;;;;;5.30;4.20;;;;;;;22.04;68.15;100820.89;92766;1209;98296;-67
2021/08/22 06:54:41;;;;;;;5.60;4.00;;;;;;;21.85;67.90;100813.81;92717;1210;86989;-67
2021/08/22 06:56:55;;;;;;;4.80;4.10;;;;;;;21.79;68.17;100814.55;92712;1209;94476;-67
2021/08/22 06:59:03;;;;;;;4.70;4.00;;;;;;;21.85;68.08;100816.95;92783;1211;78519;-67
2021/08/22 07:01:11;;;;;;;4.60;4.20;;;;;;;21.87;68.01;100817.98;92742;1209;81350;-67
2021/08/22 07:03:20;;;;;;;5.00;4.50;;;;;;;21.89;67.74;100823.96;92759;1210;100531;-66
2021/08/22 07:05:30;;;;;;;6.70;4.40;;;;;;;21.93;67.52;100818.48;92757;1209;87517;-66
2021/08/22 07:07:38;;;;;;;4.60;4.00;;;;;;;22.01;66.92;100818.48;92746;1209;94966;-67
2021/08/22 07:09:46;;;;;;;4.60;4.00;;;;;;;22.08;66.88;100821.27;92765;1209;78719;-67
2021/08/22 07:11:53;;;;;;;4.60;3.90;;;;;;;22.10;66.67;100818.29;92760;1209;82377;-66
2021/08/22 07:14:01;;;;;;;4.60;4.00;;;;;;;22.11;66.38;100818.95;92777;1209;100164;-63
2021/08/22 07:16:09;;;;;;;5.80;4.30;;;;;;;22.14;66.19;100818.83;92752;1209;87774;-63
2021/08/22 07:18:16;;;;;;;4.70;4.10;;;;;;;22.20;66.21;100822.09;92773;1209;94620;-64
2021/08/22 07:20:27;;;;;;;5.80;4.20;;;;;;;22.34;65.92;100818.80;92727;1209;78863;-64
2021/08/22 07:22:37;;;;;;;6.00;4.80;;;;;;;22.48;65.47;100820.40;92749;1209;80776;-64
2021/08/22 07:24:45;;;;;;;4.00;3.60;;;;;;;22.57;65.16;100817.60;92740;1209;100174;-67
2021/08/22 07:26:53;;;;;;;4.80;4.10;;;;;;;22.70;65.12;100816.51;92747;1209;88021;-67
2021/08/22 07:29:04;;;;;;;4.60;4.10;;;;;;;22.92;64.93;100817.02;92750;1211;93118;-67
2021/08/22 07:31:12;;;;;;;4.70;4.00;;;;;;;23.17;64.29;100812.90;92737;1210;79075;-67
2021/08/22 07:33:19;;;;;;;4.70;3.80;;;;;;;23.37;63.87;100814.36;92725;1209;81392;-67
2021/08/22 07:35:27;;;;;;;4.70;4.10;;;;;;;23.21;63.13;100813.55;92721;1209;99745;-67
2021/08/22 07:37:35;;;;;;;7.60;4.60;;;;;;;23.12;63.30;100812.52;92773;1209;87297;-67
2021/08/22 07:39:46;;;;;;;4.30;3.90;;;;;;;23.07;63.38;100816.77;92749;1209;94545;-63
2021/08/22 07:41:53;;;;;;;4.80;3.60;;;;;;;23.47;63.31;100821.89;92738;1209;79964;-64
2021/08/22 07:44:01;;;;;;;5.60;3.60;;;;;;;24.04;62.61;100825.60;92752;1203;80546;-68
2021/08/22 07:46:09;;;;;;;4.80;4.10;;;;;;;24.10;61.54;100822.39;92737;1210;98196;-68
2021/08/22 07:48:16;;;;;;;4.00;3.30;;;;;;;24.41;61.58;100819.45;92770;1209;88336;-65
2021/08/22 07:50:24;;;;;;;5.30;3.30;;;;;;;24.84;60.76;100813.42;92770;1209;93959;-64
2021/08/22 07:52:32;;;;;;;5.10;3.60;;;;;;;25.40;60.48;100812.77;92755;1209;79243;-65
2021/08/22 07:54:39;;;;;;;3.70;3.40;;;;;;;26.12;59.35;100816.23;92742;1209;83068;-64
2021/08/22 07:56:47;;;;;;;4.00;3.10;;;;;;;26.18;58.34;100819.04;92757;1209;98994;-64
2021/08/22 07:58:56;;;;;;;3.40;3.10;;;;;;;25.66;57.60;100815.31;92764;1209;86739;-64
2021/08/22 08:01:04;;;;;;;3.30;3.00;;;;;;;25.00;56.95;100818.09;92729;1209;94889;-63
2021/08/22 08:03:12;;;;;;;5.00;3.20;;;;;;;24.45;56.94;100821.35;92740;1209;80236;-66
2021/08/22 08:05:20;;;;;;;3.40;3.10;;;;;;;24.21;57.37;100826.05;92734;1209;83478;-67
2021/08/22 08:07:31;;;;;;;3.40;3.10;;;;;;;24.37;58.18;100825.13;92761;1209;99731;-67
2021/08/22 08:09:38;;;;;;;3.40;2.90;;;;;;;24.48;57.77;100825.89;92790;1209;88894;-67
2021/08/22 08:11:46;;;;;;;4.00;2.90;;;;;;;24.32;57.60;100832.73;92756;1209;94760;-67
2021/08/22 08:13:53;;;;;;;3.20;2.90;;;;;;;24.23;57.73;100832.85;92743;1209;78578;-64
2021/08/22 08:16:02;;;;;;;4.20;3.50;;;;;;;24.12;57.63;100832.02;92760;1210;80311;-65
2021/08/22 08:18:10;;;;;;;3.40;3.10;;;;;;;23.87;57.48;100830.52;92741;1209;99923;-67
2021/08/22 08:20:18;;;;;;;4.50;3.30;;;;;;;23.77;57.78;100830.34;92742;1209;88009;-68
2021/08/22 08:22:25;;;;;;;3.60;3.00;;;;;;;23.79;58.07;100830.95;92741;1217;93297;-68
2021/08/22 08:24:33;;;;;;;5.20;3.50;;;;;;;23.80;57.92;100832.73;92775;1209;78169;-64
2021/08/22 08:26:40;;;;;;;3.60;3.30;;;;;;;23.86;57.69;100832.99;92743;1209;82349;-64
2021/08/22 08:28:48;;;;;;;5.20;3.30;;;;;;;23.90;57.30;100834.02;92751;1209;98130;-64
2021/08/22 08:30:55;;;;;;;4.40;3.50;;;;;;;23.82;56.79;100835.56;92775;1209;88001;-64
2021/08/22 08:33:03;;;;;;;6.70;3.60;;;;;;;23.72;56.77;100833.78;92767;1209;93701;-63
2021/08/22 08:35:12;;;;;;;5.10;3.50;;;;;;;23.82;57.00;100838.33;92731;1209;78108;-63
2021/08/22 08:37:20;;;;;;;4.60;3.80;;;;;;;23.95;56.42;100840.67;92788;1203;80782;-64
2021/08/22 08:39:27;;;;;;;5.60;4.30;;;;;;;23.86;56.30;100839.63;92775;1209;100397;-64
2021/08/22 08:41:35;;;;;;;5.00;4.50;;;;;;;23.60;56.27;100842.58;92805;1209;88233;-64
2021/08/22 08:43:45;;;;;;;6.10;4.90;;;;;;;23.38;56.46;100843.33;92737;1209;94909;-64
2021/08/22 08:45:54;;;;;;;6.10;4.60;;;;;;;23.11;56.86;100848.34;92749;1209;79643;-64
2021/08/22 08:48:06;;;;;;;5.90;3.90;;;;;;;22.83;56.88;100844.41;92798;1209;81768;-64
2021/08/22 08:50:23;;;;;;;5.10;4.60;;;;;;;22.49;57.40;100844.75;92778;1209;99308;-70
2021/08/22 08:52:36;;;;;;;5.50;4.30;;;;;;;22.27;57.58;100843.55;92805;1209;86490;-67
2021/08/22 08:54:44;;;;;;;5.40;3.70;;;;;;;22.15;57.99;100843.55;92776;1209;94354;-70
2021/08/22 08:56:52;;;;;;;3.60;3.30;;;;;;;22.16;58.68;100845.21;92735;1208;80000;-72
2021/08/22 08:59:01;;;;;;;5.90;5.20;;;;;;;22.37;59.26;100842.52;92750;1209;81949;-66
2021/08/22 09:01:09;;;;;;;10.90;8.40;;;;;;;22.72;59.28;100841.41;92720;1209;99504;-67
2021/08/22 09:03:19;;;;;;;13.00;11.30;;;;;;;23.42;59.42;100841.80;92751;1209;89221;-67
2021/08/22 09:06:09;;;;;;;9.70;8.50;;;;;;;24.33;58.65;100844.27;92742;1209;93972;-67
2021/08/22 09:09:20;;;;;;;8.90;8.00;;;;;;;25.83;57.85;100838.58;92512;1213;79847;-68
2021/08/22 09:12:36;;;;;;;5.50;4.40;;;;;;;26.53;55.51;100838.30;92775;1209;80746;-73
2021/08/22 09:15:44;;;;;;;5.70;3.80;;;;;;;26.44;54.30;100836.90;92708;1209;100820;-72
2021/08/22 09:19:00;;;;;;;4.80;3.50;;;;;;;26.26;53.76;100833.44;92718;1210;88320;-65
2021/08/22 09:22:19;;;;;;;3.40;2.70;;;;;;;26.16;53.64;100831.52;92750;1209;95225;-64
2021/08/22 09:25:20;;;;;;;4.10;3.40;;;;;;;25.97;53.10;100832.20;92698;1212;79713;-64
2021/08/22 09:28:57;;;;;;;3.60;3.30;;;;;;;26.40;53.13;100835.70;92754;1209;82229;-67
2021/08/22 09:32:13;;;;;;;6.20;3.00;;;;;;;26.67;52.41;100836.97;92769;1209;98699;-70
2021/08/22 09:35:20;;;;;;;3.90;3.00;;;;;;;27.25;51.04;100835.80;92531;1212;87618;-68
2021/08/22 09:38:38;;;;;;;3.60;3.30;;;;;;;27.44;50.79;100835.84;92552;1212;93007;-67
2021/08/22 09:41:48;;;;;;;2.90;2.60;;;;;;;27.32;50.82;100840.39;92632;1212;78102;-68
2021/08/22 09:44:48;;;;;;;4.00;3.50;;;;;;;27.12;51.05;100837.02;92563;1212;81546;-71
2021/08/22 09:47:48;;;;;;;3.80;3.10;;;;;;;26.96;50.60;100833.04;92744;1209;100171;-70
2021/08/22 09:54:17;;;;;;;3.80;3.50;;;;;;;26.75;50.98;100823.23;91602;1225;599588;-70
2021/08/22 09:57:25;;;;;;;3.50;3.00;;;;;;;26.65;50.74;100820.62;92646;1212;79212;-69
2021/08/22 10:00:37;;;;;;;4.00;3.00;;;;;;;26.48;50.67;100820.31;92765;1212;81146;-70
2021/08/22 10:03:31;;;;;;;4.30;3.20;;;;;;;26.61;50.43;100819.48;92718;1212;97556;-67
2021/08/22 10:06:15;;;;;;;3.20;2.80;;;;;;;26.64;50.45;100818.06;92734;1212;88028;-68
2021/08/22 10:08:41;;;;;;;3.90;3.40;;;;;;;26.49;49.62;100819.54;92724;1212;93618;-67
2021/08/22 10:10:53;;;;;;;4.50;3.60;;;;;;;26.36;50.05;100820.48;92734;1212;79803;-68
2021/08/22 10:13:04;;;;;;;3.30;3.00;;;;;;;26.47;50.14;100819.98;92756;1205;81313;-70
2021/08/22 10:15:17;;;;;;;3.50;3.10;;;;;;;26.52;49.67;100816.92;92748;1212;96104;-69
2021/08/22 10:17:26;;;;;;;4.00;2.90;;;;;;;26.49;49.61;100817.77;92757;1212;88308;-68
2021/08/22 10:19:34;;;;;;;3.60;3.20;;;;;;;26.50;49.88;100812.39;92751;1212;93985;-69